sensor_id;sensor_type;location;lat;lon;timestamp;temperature;humidity
4701;DHT22;8724;51.272;6.554;2023-06-10T00:00:44;24.80;99.90
4701;DHT22;8724;51.272;6.554;2023-06-10T00:03:13;24.80;99.90
4701;DHT22;8724;51.272;6.554;2023-06-10T00:05:41;24.70;99.90
4701;DHT22;8724;51.272;6.554;2023-06-10T00:08:10;24.70;99.90
4701;DHT22;8724;51.272;6.554;2023-06-10T00:10:38;24.70;99.90
4701;DHT22;8724;51.272;6.554;2023-06-10T00:13:08;24.70;99.90
4701;DHT22;8724;51.272;6.554;2023-06-10T00:15:39;24.70;99.90
4701;DHT22;8724;51.272;6.554;2023-06-10T00:18:07;24.60;99.90
4701;DHT22;8724;51.272;6.554;2023-06-10T00:20:37;24.60;99.90
4701;DHT22;8724;51.272;6.554;2023-06-10T00:23:06;24.60;99.90
4701;DHT22;8724;51.272;6.554;2023-06-10T00:25:35;24.60;99.90
4701;DHT22;8724;51.272;6.554;2023-06-10T00:28:04;24.60;99.90
4701;DHT22;8724;51.272;6.554;2023-06-10T00:30:33;24.60;99.90
4701;DHT22;8724;51.272;6.554;2023-06-10T00:33:02;24.60;99.90
4701;DHT22;8724;51.272;6.554;2023-06-10T00:35:34;24.60;99.90
4701;DHT22;8724;51.272;6.554;2023-06-10T00:38:02;24.50;99.90
4701;DHT22;8724;51.272;6.554;2023-06-10T00:40:33;24.50;99.90
4701;DHT22;8724;51.272;6.554;2023-06-10T00:43:01;24.50;99.90
4701;DHT22;8724;51.272;6.554;2023-06-10T00:45:31;24.50;99.90
4701;DHT22;8724;51.272;6.554;2023-06-10T00:48:01;24.50;99.90
4701;DHT22;8724;51.272;6.554;2023-06-10T00:50:30;24.40;99.90
4701;DHT22;8724;51.272;6.554;2023-06-10T00:53:00;24.40;99.90
4701;DHT22;8724;51.272;6.554;2023-06-10T00:55:29;24.40;99.90
4701;DHT22;8724;51.272;6.554;2023-06-10T00:57:58;24.40;99.90
4701;DHT22;8724;51.272;6.554;2023-06-10T01:00:27;24.40;99.90
4701;DHT22;8724;51.272;6.554;2023-06-10T01:02:56;24.40;99.90
4701;DHT22;8724;51.272;6.554;2023-06-10T01:05:27;24.40;99.90
4701;DHT22;8724;51.272;6.554;2023-06-10T01:08:01;24.40;99.90
4701;DHT22;8724;51.272;6.554;2023-06-10T01:10:35;24.30;99.90
4701;DHT22;8724;51.272;6.554;2023-06-10T01:13:07;24.30;99.90
4701;DHT22;8724;51.272;6.554;2023-06-10T01:15:39;24.30;99.90
4701;DHT22;8724;51.272;6.554;2023-06-10T01:18:08;24.30;99.90
4701;DHT22;8724;51.272;6.554;2023-06-10T01:20:44;24.30;99.90
4701;DHT22;8724;51.272;6.554;2023-06-10T01:23:18;24.30;99.90
4701;DHT22;8724;51.272;6.554;2023-06-10T01:25:57;24.30;99.90
4701;DHT22;8724;51.272;6.554;2023-06-10T01:28:29;24.30;99.90
4701;DHT22;8724;51.272;6.554;2023-06-10T01:31:07;24.20;99.90
4701;DHT22;8724;51.272;6.554;2023-06-10T01:33:41;24.20;99.90
4701;DHT22;8724;51.272;6.554;2023-06-10T01:36:12;24.20;99.90
4701;DHT22;8724;51.272;6.554;2023-06-10T01:38:44;24.20;99.90
4701;DHT22;8724;51.272;6.554;2023-06-10T01:41:16;24.20;99.90
4701;DHT22;8724;51.272;6.554;2023-06-10T01:43:45;24.10;99.90
4701;DHT22;8724;51.272;6.554;2023-06-10T01:46:14;24.20;99.90
4701;DHT22;8724;51.272;6.554;2023-06-10T01:48:43;24.20;99.90
4701;DHT22;8724;51.272;6.554;2023-06-10T01:51:11;24.10;99.90
4701;DHT22;8724;51.272;6.554;2023-06-10T01:53:39;24.10;99.90
4701;DHT22;8724;51.272;6.554;2023-06-10T01:56:09;24.10;99.90
4701;DHT22;8724;51.272;6.554;2023-06-10T01:58:43;24.10;99.90
4701;DHT22;8724;51.272;6.554;2023-06-10T02:01:12;24.10;99.90
4701;DHT22;8724;51.272;6.554;2023-06-10T02:03:41;24.10;99.90
4701;DHT22;8724;51.272;6.554;2023-06-10T02:06:09;24.00;99.90
4701;DHT22;8724;51.272;6.554;2023-06-10T02:08:38;24.00;99.90
4701;DHT22;8724;51.272;6.554;2023-06-10T02:11:06;24.10;99.90
4701;DHT22;8724;51.272;6.554;2023-06-10T02:13:39;24.00;99.90
4701;DHT22;8724;51.272;6.554;2023-06-10T02:16:07;24.00;99.90
4701;DHT22;8724;51.272;6.554;2023-06-10T02:18:36;24.00;99.90
4701;DHT22;8724;51.272;6.554;2023-06-10T02:21:08;24.00;99.90
4701;DHT22;8724;51.272;6.554;2023-06-10T02:23:36;23.90;99.90
4701;DHT22;8724;51.272;6.554;2023-06-10T02:26:05;23.90;99.90
4701;DHT22;8724;51.272;6.554;2023-06-10T02:28:34;23.90;99.90
4701;DHT22;8724;51.272;6.554;2023-06-10T02:31:03;23.90;99.90
4701;DHT22;8724;51.272;6.554;2023-06-10T02:33:32;23.90;99.90
4701;DHT22;8724;51.272;6.554;2023-06-10T02:36:01;23.90;99.90
4701;DHT22;8724;51.272;6.554;2023-06-10T02:38:30;23.90;99.90
4701;DHT22;8724;51.272;6.554;2023-06-10T02:40:59;23.90;99.90
4701;DHT22;8724;51.272;6.554;2023-06-10T02:43:28;23.90;99.90
4701;DHT22;8724;51.272;6.554;2023-06-10T02:45:56;23.80;99.90
4701;DHT22;8724;51.272;6.554;2023-06-10T02:48:27;23.90;99.90
4701;DHT22;8724;51.272;6.554;2023-06-10T02:50:56;23.90;99.90
4701;DHT22;8724;51.272;6.554;2023-06-10T02:53:32;23.80;99.90
4701;DHT22;8724;51.272;6.554;2023-06-10T02:56:06;23.80;99.90
4701;DHT22;8724;51.272;6.554;2023-06-10T02:58:35;23.80;99.90
4701;DHT22;8724;51.272;6.554;2023-06-10T03:01:05;23.80;99.90
4701;DHT22;8724;51.272;6.554;2023-06-10T03:03:43;23.80;99.90
4701;DHT22;8724;51.272;6.554;2023-06-10T03:06:16;23.80;99.90
4701;DHT22;8724;51.272;6.554;2023-06-10T03:08:45;23.70;99.90
4701;DHT22;8724;51.272;6.554;2023-06-10T03:11:17;23.70;99.90
4701;DHT22;8724;51.272;6.554;2023-06-10T03:13:47;23.70;99.90
4701;DHT22;8724;51.272;6.554;2023-06-10T03:16:18;23.70;99.90
4701;DHT22;8724;51.272;6.554;2023-06-10T03:18:49;23.70;99.90
4701;DHT22;8724;51.272;6.554;2023-06-10T03:21:17;23.70;99.90
4701;DHT22;8724;51.272;6.554;2023-06-10T03:23:46;23.50;99.90
4701;DHT22;8724;51.272;6.554;2023-06-10T03:26:15;23.70;99.90
4701;DHT22;8724;51.272;6.554;2023-06-10T03:28:47;23.60;99.90
4701;DHT22;8724;51.272;6.554;2023-06-10T03:31:16;23.60;99.90
4701;DHT22;8724;51.272;6.554;2023-06-10T03:33:45;23.60;99.90
4701;DHT22;8724;51.272;6.554;2023-06-10T03:36:15;23.60;99.90
4701;DHT22;8724;51.272;6.554;2023-06-10T03:38:43;23.60;99.90
4701;DHT22;8724;51.272;6.554;2023-06-10T03:41:12;23.60;99.90
4701;DHT22;8724;51.272;6.554;2023-06-10T03:43:42;23.50;99.90
4701;DHT22;8724;51.272;6.554;2023-06-10T03:46:12;23.50;99.90
4701;DHT22;8724;51.272;6.554;2023-06-10T03:48:41;23.50;99.90
4701;DHT22;8724;51.272;6.554;2023-06-10T03:51:10;23.50;99.90
4701;DHT22;8724;51.272;6.554;2023-06-10T03:53:40;23.50;99.90
4701;DHT22;8724;51.272;6.554;2023-06-10T03:56:08;23.50;99.90
4701;DHT22;8724;51.272;6.554;2023-06-10T03:58:37;23.50;99.90
4701;DHT22;8724;51.272;6.554;2023-06-10T04:01:06;23.50;99.90
4701;DHT22;8724;51.272;6.554;2023-06-10T04:03:35;23.40;99.90
4701;DHT22;8724;51.272;6.554;2023-06-10T04:06:04;23.40;99.90
4701;DHT22;8724;51.272;6.554;2023-06-10T04:08:33;23.40;99.90
4701;DHT22;8724;51.272;6.554;2023-06-10T04:11:02;23.40;99.90
4701;DHT22;8724;51.272;6.554;2023-06-10T04:13:31;23.50;99.90
4701;DHT22;8724;51.272;6.554;2023-06-10T04:15:59;23.40;99.90
4701;DHT22;8724;51.272;6.554;2023-06-10T04:18:28;23.40;99.90
4701;DHT22;8724;51.272;6.554;2023-06-10T04:21:01;23.40;99.90
4701;DHT22;8724;51.272;6.554;2023-06-10T04:23:30;23.40;99.90
4701;DHT22;8724;51.272;6.554;2023-06-10T04:26:00;23.40;99.90
4701;DHT22;8724;51.272;6.554;2023-06-10T04:28:30;23.40;99.90
4701;DHT22;8724;51.272;6.554;2023-06-10T04:30:59;23.40;99.90
4701;DHT22;8724;51.272;6.554;2023-06-10T04:33:29;23.50;99.90
4701;DHT22;8724;51.272;6.554;2023-06-10T04:35:59;23.40;99.90
4701;DHT22;8724;51.272;6.554;2023-06-10T04:38:30;23.40;99.90
4701;DHT22;8724;51.272;6.554;2023-06-10T04:40:59;23.40;99.90
4701;DHT22;8724;51.272;6.554;2023-06-10T04:43:33;23.40;99.90
4701;DHT22;8724;51.272;6.554;2023-06-10T04:46:01;23.40;99.90
4701;DHT22;8724;51.272;6.554;2023-06-10T04:48:33;23.50;99.90
4701;DHT22;8724;51.272;6.554;2023-06-10T04:51:03;23.40;99.90
4701;DHT22;8724;51.272;6.554;2023-06-10T04:53:32;23.40;99.90
4701;DHT22;8724;51.272;6.554;2023-06-10T04:56:01;23.40;99.90
4701;DHT22;8724;51.272;6.554;2023-06-10T04:58:29;23.40;99.90
4701;DHT22;8724;51.272;6.554;2023-06-10T05:00:59;23.40;99.90
4701;DHT22;8724;51.272;6.554;2023-06-10T05:03:29;23.40;99.90
4701;DHT22;8724;51.272;6.554;2023-06-10T05:05:57;23.40;99.90
4701;DHT22;8724;51.272;6.554;2023-06-10T05:08:26;23.40;99.90
4701;DHT22;8724;51.272;6.554;2023-06-10T05:10:54;23.50;99.90
4701;DHT22;8724;51.272;6.554;2023-06-10T05:13:22;23.40;99.90
4701;DHT22;8724;51.272;6.554;2023-06-10T05:15:51;23.40;99.90
4701;DHT22;8724;51.272;6.554;2023-06-10T05:18:21;23.50;99.90
4701;DHT22;8724;51.272;6.554;2023-06-10T05:20:49;23.40;99.90
4701;DHT22;8724;51.272;6.554;2023-06-10T05:23:18;23.40;99.90
4701;DHT22;8724;51.272;6.554;2023-06-10T05:25:46;23.40;99.90
4701;DHT22;8724;51.272;6.554;2023-06-10T05:28:15;23.40;99.90
4701;DHT22;8724;51.272;6.554;2023-06-10T05:30:43;23.50;99.90
4701;DHT22;8724;51.272;6.554;2023-06-10T05:33:12;23.40;99.90
4701;DHT22;8724;51.272;6.554;2023-06-10T05:35:42;23.50;99.90
4701;DHT22;8724;51.272;6.554;2023-06-10T05:38:10;23.50;99.90
4701;DHT22;8724;51.272;6.554;2023-06-10T05:40:39;23.50;99.90
4701;DHT22;8724;51.272;6.554;2023-06-10T05:43:07;23.50;99.90
4701;DHT22;8724;51.272;6.554;2023-06-10T05:45:37;23.50;99.90
4701;DHT22;8724;51.272;6.554;2023-06-10T05:48:08;23.50;99.90
4701;DHT22;8724;51.272;6.554;2023-06-10T05:50:37;23.50;99.90
4701;DHT22;8724;51.272;6.554;2023-06-10T05:53:08;23.50;99.90
4701;DHT22;8724;51.272;6.554;2023-06-10T05:55:42;23.60;99.90
4701;DHT22;8724;51.272;6.554;2023-06-10T05:58:11;23.50;99.90
4701;DHT22;8724;51.272;6.554;2023-06-10T06:00:40;23.50;99.90
4701;DHT22;8724;51.272;6.554;2023-06-10T06:03:09;23.50;99.90
4701;DHT22;8724;51.272;6.554;2023-06-10T06:05:38;23.50;99.90
4701;DHT22;8724;51.272;6.554;2023-06-10T06:08:08;23.50;99.90
4701;DHT22;8724;51.272;6.554;2023-06-10T06:10:36;23.60;99.90
4701;DHT22;8724;51.272;6.554;2023-06-10T06:13:05;23.30;99.90
4701;DHT22;8724;51.272;6.554;2023-06-10T06:15:34;23.60;99.90
4701;DHT22;8724;51.272;6.554;2023-06-10T06:18:02;23.60;99.90
4701;DHT22;8724;51.272;6.554;2023-06-10T06:20:31;23.60;99.90
4701;DHT22;8724;51.272;6.554;2023-06-10T06:22:59;23.60;99.90
4701;DHT22;8724;51.272;6.554;2023-06-10T06:25:29;23.70;99.90
4701;DHT22;8724;51.272;6.554;2023-06-10T06:27:57;23.70;99.90
4701;DHT22;8724;51.272;6.554;2023-06-10T06:30:26;23.70;99.90
4701;DHT22;8724;51.272;6.554;2023-06-10T06:32:54;23.70;99.90
4701;DHT22;8724;51.272;6.554;2023-06-10T06:35:23;23.70;99.90
4701;DHT22;8724;51.272;6.554;2023-06-10T06:37:51;23.70;99.90
4701;DHT22;8724;51.272;6.554;2023-06-10T06:40:25;23.70;99.90
4701;DHT22;8724;51.272;6.554;2023-06-10T06:42:55;23.70;99.90
4701;DHT22;8724;51.272;6.554;2023-06-10T06:45:36;23.80;99.90
4701;DHT22;8724;51.272;6.554;2023-06-10T06:48:05;23.70;99.90
4701;DHT22;8724;51.272;6.554;2023-06-10T06:50:34;23.70;99.90
4701;DHT22;8724;51.272;6.554;2023-06-10T06:53:02;23.80;99.90
4701;DHT22;8724;51.272;6.554;2023-06-10T06:55:31;23.80;99.90
4701;DHT22;8724;51.272;6.554;2023-06-10T06:58:01;23.80;99.90
4701;DHT22;8724;51.272;6.554;2023-06-10T07:00:31;23.80;99.90
4701;DHT22;8724;51.272;6.554;2023-06-10T07:02:59;23.80;99.90
4701;DHT22;8724;51.272;6.554;2023-06-10T07:05:28;23.80;99.90
4701;DHT22;8724;51.272;6.554;2023-06-10T07:07:58;23.80;99.90
4701;DHT22;8724;51.272;6.554;2023-06-10T07:10:26;23.80;99.90
4701;DHT22;8724;51.272;6.554;2023-06-10T07:12:55;23.80;99.90
4701;DHT22;8724;51.272;6.554;2023-06-10T07:15:25;23.90;99.90
4701;DHT22;8724;51.272;6.554;2023-06-10T07:17:53;23.80;99.90
4701;DHT22;8724;51.272;6.554;2023-06-10T07:20:22;23.90;99.90
4701;DHT22;8724;51.272;6.554;2023-06-10T07:22:51;23.90;99.90
4701;DHT22;8724;51.272;6.554;2023-06-10T07:25:19;23.90;99.90
4701;DHT22;8724;51.272;6.554;2023-06-10T07:27:48;23.90;99.90
4701;DHT22;8724;51.272;6.554;2023-06-10T07:30:17;23.90;99.90
4701;DHT22;8724;51.272;6.554;2023-06-10T07:32:47;23.90;99.90
4701;DHT22;8724;51.272;6.554;2023-06-10T07:35:16;24.00;99.90
4701;DHT22;8724;51.272;6.554;2023-06-10T07:37:45;24.00;99.90
4701;DHT22;8724;51.272;6.554;2023-06-10T07:40:14;24.00;99.90
4701;DHT22;8724;51.272;6.554;2023-06-10T07:42:42;24.00;99.90
4701;DHT22;8724;51.272;6.554;2023-06-10T07:45:11;24.00;99.90
4701;DHT22;8724;51.272;6.554;2023-06-10T07:47:39;24.10;99.90
4701;DHT22;8724;51.272;6.554;2023-06-10T07:50:09;24.00;99.90
4701;DHT22;8724;51.272;6.554;2023-06-10T07:52:38;24.10;99.90
4701;DHT22;8724;51.272;6.554;2023-06-10T07:55:07;24.10;99.90
4701;DHT22;8724;51.272;6.554;2023-06-10T07:57:36;24.10;99.90
4701;DHT22;8724;51.272;6.554;2023-06-10T08:00:08;24.10;99.90
4701;DHT22;8724;51.272;6.554;2023-06-10T08:02:39;24.10;99.90
4701;DHT22;8724;51.272;6.554;2023-06-10T08:05:09;24.20;99.90
4701;DHT22;8724;51.272;6.554;2023-06-10T08:07:39;24.20;99.90
4701;DHT22;8724;51.272;6.554;2023-06-10T08:10:09;24.20;99.90
4701;DHT22;8724;51.272;6.554;2023-06-10T08:12:38;24.20;99.90
4701;DHT22;8724;51.272;6.554;2023-06-10T08:15:07;24.20;99.90
4701;DHT22;8724;51.272;6.554;2023-06-10T08:17:37;24.20;99.90
4701;DHT22;8724;51.272;6.554;2023-06-10T08:20:10;24.20;99.90
4701;DHT22;8724;51.272;6.554;2023-06-10T08:22:38;24.30;99.90
4701;DHT22;8724;51.272;6.554;2023-06-10T08:25:07;24.30;99.90
4701;DHT22;8724;51.272;6.554;2023-06-10T08:27:38;24.30;99.90
4701;DHT22;8724;51.272;6.554;2023-06-10T08:30:07;24.30;99.90
4701;DHT22;8724;51.272;6.554;2023-06-10T08:32:37;24.30;99.90
4701;DHT22;8724;51.272;6.554;2023-06-10T08:35:06;24.30;99.90
4701;DHT22;8724;51.272;6.554;2023-06-10T08:37:36;24.30;99.90
4701;DHT22;8724;51.272;6.554;2023-06-10T08:40:06;24.30;99.90
4701;DHT22;8724;51.272;6.554;2023-06-10T08:42:39;24.40;99.90
4701;DHT22;8724;51.272;6.554;2023-06-10T08:45:15;24.40;99.90
4701;DHT22;8724;51.272;6.554;2023-06-10T08:47:45;24.40;99.90
4701;DHT22;8724;51.272;6.554;2023-06-10T08:50:16;24.40;99.90
4701;DHT22;8724;51.272;6.554;2023-06-10T08:52:48;24.40;99.90
4701;DHT22;8724;51.272;6.554;2023-06-10T08:55:21;24.40;99.90
4701;DHT22;8724;51.272;6.554;2023-06-10T08:57:56;24.50;99.90
4701;DHT22;8724;51.272;6.554;2023-06-10T09:00:26;24.40;99.90
4701;DHT22;8724;51.272;6.554;2023-06-10T09:02:56;24.50;99.90
4701;DHT22;8724;51.272;6.554;2023-06-10T09:05:27;24.50;99.90
4701;DHT22;8724;51.272;6.554;2023-06-10T09:07:59;24.50;99.90
4701;DHT22;8724;51.272;6.554;2023-06-10T09:10:28;24.50;99.90
4701;DHT22;8724;51.272;6.554;2023-06-10T09:12:57;24.50;99.90
4701;DHT22;8724;51.272;6.554;2023-06-10T09:15:25;24.60;99.90
4701;DHT22;8724;51.272;6.554;2023-06-10T09:17:54;24.60;99.90
4701;DHT22;8724;51.272;6.554;2023-06-10T09:20:23;24.60;99.90
4701;DHT22;8724;51.272;6.554;2023-06-10T09:22:52;24.60;99.90
4701;DHT22;8724;51.272;6.554;2023-06-10T09:25:34;24.60;99.90
4701;DHT22;8724;51.272;6.554;2023-06-10T09:28:04;24.70;99.90
4701;DHT22;8724;51.272;6.554;2023-06-10T09:30:33;24.70;99.90
4701;DHT22;8724;51.272;6.554;2023-06-10T09:33:03;24.70;99.90
4701;DHT22;8724;51.272;6.554;2023-06-10T09:35:45;24.70;99.90
4701;DHT22;8724;51.272;6.554;2023-06-10T09:38:14;24.70;99.90
4701;DHT22;8724;51.272;6.554;2023-06-10T09:40:50;24.70;99.90
4701;DHT22;8724;51.272;6.554;2023-06-10T09:43:19;24.70;99.90
4701;DHT22;8724;51.272;6.554;2023-06-10T09:45:48;24.80;99.90
4701;DHT22;8724;51.272;6.554;2023-06-10T09:48:17;24.80;99.90
4701;DHT22;8724;51.272;6.554;2023-06-10T09:50:46;24.80;99.90
4701;DHT22;8724;51.272;6.554;2023-06-10T09:53:17;24.80;99.90
4701;DHT22;8724;51.272;6.554;2023-06-10T09:55:46;24.90;99.90
4701;DHT22;8724;51.272;6.554;2023-06-10T09:58:16;24.90;99.90
4701;DHT22;8724;51.272;6.554;2023-06-10T10:00:52;24.90;99.90
4701;DHT22;8724;51.272;6.554;2023-06-10T10:03:22;24.90;99.90
4701;DHT22;8724;51.272;6.554;2023-06-10T10:05:58;24.90;99.90
4701;DHT22;8724;51.272;6.554;2023-06-10T10:08:27;24.90;99.90
4701;DHT22;8724;51.272;6.554;2023-06-10T10:10:57;24.90;99.90
4701;DHT22;8724;51.272;6.554;2023-06-10T10:13:28;25.00;99.90
4701;DHT22;8724;51.272;6.554;2023-06-10T10:16:01;25.00;99.90
4701;DHT22;8724;51.272;6.554;2023-06-10T10:18:32;25.00;99.90
4701;DHT22;8724;51.272;6.554;2023-06-10T10:21:07;25.00;99.90
4701;DHT22;8724;51.272;6.554;2023-06-10T10:23:42;25.00;99.90
4701;DHT22;8724;51.272;6.554;2023-06-10T10:26:13;25.10;99.90
4701;DHT22;8724;51.272;6.554;2023-06-10T10:28:46;25.10;99.90
4701;DHT22;8724;51.272;6.554;2023-06-10T10:31:18;25.10;99.90
4701;DHT22;8724;51.272;6.554;2023-06-10T10:33:54;25.10;99.90
4701;DHT22;8724;51.272;6.554;2023-06-10T10:36:24;25.10;99.90
4701;DHT22;8724;51.272;6.554;2023-06-10T10:38:54;25.20;99.90
4701;DHT22;8724;51.272;6.554;2023-06-10T10:41:23;25.20;99.90
4701;DHT22;8724;51.272;6.554;2023-06-10T10:43:55;25.20;99.90
4701;DHT22;8724;51.272;6.554;2023-06-10T10:46:24;25.20;99.90
4701;DHT22;8724;51.272;6.554;2023-06-10T10:48:53;25.20;99.90
4701;DHT22;8724;51.272;6.554;2023-06-10T10:51:23;25.30;99.90
4701;DHT22;8724;51.272;6.554;2023-06-10T10:54:11;25.30;99.90
4701;DHT22;8724;51.272;6.554;2023-06-10T10:59:55;25.30;99.90
4701;DHT22;8724;51.272;6.554;2023-06-10T11:02:37;25.30;99.90
4701;DHT22;8724;51.272;6.554;2023-06-10T11:05:13;25.40;99.90
4701;DHT22;8724;51.272;6.554;2023-06-10T11:07:54;25.40;99.90
4701;DHT22;8724;51.272;6.554;2023-06-10T11:10:29;25.50;99.90
4701;DHT22;8724;51.272;6.554;2023-06-10T11:12:59;25.40;99.90
4701;DHT22;8724;51.272;6.554;2023-06-10T11:15:29;25.50;99.90
4701;DHT22;8724;51.272;6.554;2023-06-10T11:18:15;25.50;99.90
4701;DHT22;8724;51.272;6.554;2023-06-10T11:20:59;25.60;99.90
4701;DHT22;8724;51.272;6.554;2023-06-10T11:23:43;25.60;99.90
4701;DHT22;8724;51.272;6.554;2023-06-10T11:26:30;25.60;99.90
4701;DHT22;8724;51.272;6.554;2023-06-10T11:29:07;25.60;99.90
4701;DHT22;8724;51.272;6.554;2023-06-10T11:31:42;25.60;99.90
4701;DHT22;8724;51.272;6.554;2023-06-10T11:34:11;25.70;99.90
4701;DHT22;8724;51.272;6.554;2023-06-10T11:36:40;25.70;99.90
4701;DHT22;8724;51.272;6.554;2023-06-10T11:39:10;25.70;99.90
4701;DHT22;8724;51.272;6.554;2023-06-10T11:41:39;25.70;99.90
4701;DHT22;8724;51.272;6.554;2023-06-10T11:44:09;25.80;99.90
4701;DHT22;8724;51.272;6.554;2023-06-10T11:46:40;25.80;99.90
4701;DHT22;8724;51.272;6.554;2023-06-10T11:49:09;25.80;99.90
4701;DHT22;8724;51.272;6.554;2023-06-10T11:51:40;25.90;99.90
4701;DHT22;8724;51.272;6.554;2023-06-10T11:54:16;25.80;99.90
4701;DHT22;8724;51.272;6.554;2023-06-10T11:56:46;25.90;99.90
4701;DHT22;8724;51.272;6.554;2023-06-10T11:59:15;25.90;99.90
4701;DHT22;8724;51.272;6.554;2023-06-10T12:01:45;26.00;99.90
4701;DHT22;8724;51.272;6.554;2023-06-10T12:04:15;26.00;99.90
4701;DHT22;8724;51.272;6.554;2023-06-10T12:06:47;26.00;99.90
4701;DHT22;8724;51.272;6.554;2023-06-10T12:09:18;26.00;99.90
4701;DHT22;8724;51.272;6.554;2023-06-10T12:11:56;26.10;99.90
4701;DHT22;8724;51.272;6.554;2023-06-10T12:14:55;26.10;99.90
4701;DHT22;8724;51.272;6.554;2023-06-10T12:17:37;26.10;99.90
4701;DHT22;8724;51.272;6.554;2023-06-10T12:20:07;26.10;99.90
4701;DHT22;8724;51.272;6.554;2023-06-10T12:22:37;26.10;99.90
4701;DHT22;8724;51.272;6.554;2023-06-10T12:25:07;26.10;99.90
4701;DHT22;8724;51.272;6.554;2023-06-10T12:27:37;26.10;99.90
4701;DHT22;8724;51.272;6.554;2023-06-10T12:30:07;26.10;99.90
4701;DHT22;8724;51.272;6.554;2023-06-10T12:32:38;26.20;99.90
4701;DHT22;8724;51.272;6.554;2023-06-10T12:35:09;26.20;99.90
4701;DHT22;8724;51.272;6.554;2023-06-10T12:37:38;26.20;99.90
4701;DHT22;8724;51.272;6.554;2023-06-10T12:40:10;26.20;99.90
4701;DHT22;8724;51.272;6.554;2023-06-10T12:42:39;26.20;99.90
4701;DHT22;8724;51.272;6.554;2023-06-10T12:45:09;26.20;99.90
4701;DHT22;8724;51.272;6.554;2023-06-10T12:47:41;26.20;99.90
4701;DHT22;8724;51.272;6.554;2023-06-10T12:50:10;26.20;99.90
4701;DHT22;8724;51.272;6.554;2023-06-10T12:52:40;26.20;99.90
4701;DHT22;8724;51.272;6.554;2023-06-10T12:55:09;26.20;99.90
4701;DHT22;8724;51.272;6.554;2023-06-10T12:57:48;26.20;99.90
4701;DHT22;8724;51.272;6.554;2023-06-10T13:00:18;26.20;99.90
4701;DHT22;8724;51.272;6.554;2023-06-10T13:02:48;26.20;99.90
4701;DHT22;8724;51.272;6.554;2023-06-10T13:05:17;26.20;99.90
4701;DHT22;8724;51.272;6.554;2023-06-10T13:07:47;26.20;99.90
4701;DHT22;8724;51.272;6.554;2023-06-10T13:10:17;26.20;99.90
4701;DHT22;8724;51.272;6.554;2023-06-10T13:12:48;26.20;99.90
4701;DHT22;8724;51.272;6.554;2023-06-10T13:15:17;26.20;99.90
4701;DHT22;8724;51.272;6.554;2023-06-10T13:17:47;26.20;99.90
4701;DHT22;8724;51.272;6.554;2023-06-10T13:20:16;26.20;99.90
4701;DHT22;8724;51.272;6.554;2023-06-10T13:22:45;26.10;99.90
4701;DHT22;8724;51.272;6.554;2023-06-10T13:25:15;26.10;99.90
4701;DHT22;8724;51.272;6.554;2023-06-10T13:27:43;26.10;99.90
4701;DHT22;8724;51.272;6.554;2023-06-10T13:30:12;26.10;99.90
4701;DHT22;8724;51.272;6.554;2023-06-10T13:32:40;26.20;99.90
4701;DHT22;8724;51.272;6.554;2023-06-10T13:35:11;26.20;99.90
4701;DHT22;8724;51.272;6.554;2023-06-10T13:37:40;26.20;99.90
4701;DHT22;8724;51.272;6.554;2023-06-10T13:40:09;26.20;99.90
4701;DHT22;8724;51.272;6.554;2023-06-10T13:42:38;26.20;99.90
4701;DHT22;8724;51.272;6.554;2023-06-10T13:45:07;26.30;99.90
4701;DHT22;8724;51.272;6.554;2023-06-10T13:47:37;26.30;99.90
4701;DHT22;8724;51.272;6.554;2023-06-10T13:50:07;26.30;99.90
4701;DHT22;8724;51.272;6.554;2023-06-10T13:52:37;26.30;99.90
4701;DHT22;8724;51.272;6.554;2023-06-10T13:55:06;26.30;99.90
4701;DHT22;8724;51.272;6.554;2023-06-10T13:57:35;26.30;99.90
4701;DHT22;8724;51.272;6.554;2023-06-10T14:00:05;26.30;99.90
4701;DHT22;8724;51.272;6.554;2023-06-10T14:02:33;26.40;99.90
4701;DHT22;8724;51.272;6.554;2023-06-10T14:05:02;26.40;99.90
4701;DHT22;8724;51.272;6.554;2023-06-10T14:07:32;26.40;99.90
4701;DHT22;8724;51.272;6.554;2023-06-10T14:10:02;26.50;99.90
4701;DHT22;8724;51.272;6.554;2023-06-10T14:12:31;26.50;99.90
4701;DHT22;8724;51.272;6.554;2023-06-10T14:14:59;26.50;99.90
4701;DHT22;8724;51.272;6.554;2023-06-10T14:17:28;26.50;99.90
4701;DHT22;8724;51.272;6.554;2023-06-10T14:19:56;26.50;99.90
4701;DHT22;8724;51.272;6.554;2023-06-10T14:22:25;26.50;99.90
4701;DHT22;8724;51.272;6.554;2023-06-10T14:24:53;26.50;99.90
4701;DHT22;8724;51.272;6.554;2023-06-10T14:27:23;26.50;99.90
4701;DHT22;8724;51.272;6.554;2023-06-10T14:29:51;26.50;99.90
4701;DHT22;8724;51.272;6.554;2023-06-10T14:32:19;26.50;99.90
4701;DHT22;8724;51.272;6.554;2023-06-10T14:34:48;26.50;99.90
4701;DHT22;8724;51.272;6.554;2023-06-10T14:37:16;26.50;99.90
4701;DHT22;8724;51.272;6.554;2023-06-10T14:39:45;26.50;99.90
4701;DHT22;8724;51.272;6.554;2023-06-10T14:42:13;26.50;99.90
4701;DHT22;8724;51.272;6.554;2023-06-10T14:44:43;26.60;99.90
4701;DHT22;8724;51.272;6.554;2023-06-10T14:47:11;26.60;99.90
4701;DHT22;8724;51.272;6.554;2023-06-10T14:49:40;26.60;99.90
4701;DHT22;8724;51.272;6.554;2023-06-10T14:52:10;26.60;99.90
4701;DHT22;8724;51.272;6.554;2023-06-10T14:54:39;26.60;99.90
4701;DHT22;8724;51.272;6.554;2023-06-10T14:57:07;26.70;99.90
4701;DHT22;8724;51.272;6.554;2023-06-10T14:59:36;26.70;99.90
4701;DHT22;8724;51.272;6.554;2023-06-10T15:02:06;26.70;99.90
4701;DHT22;8724;51.272;6.554;2023-06-10T15:04:34;26.70;99.90
4701;DHT22;8724;51.272;6.554;2023-06-10T15:07:03;26.70;99.90
4701;DHT22;8724;51.272;6.554;2023-06-10T15:09:31;26.70;99.90
4701;DHT22;8724;51.272;6.554;2023-06-10T15:12:00;26.70;99.90
4701;DHT22;8724;51.272;6.554;2023-06-10T15:14:30;26.70;99.90
4701;DHT22;8724;51.272;6.554;2023-06-10T15:16:58;26.70;99.90
4701;DHT22;8724;51.272;6.554;2023-06-10T15:19:28;26.60;99.90
4701;DHT22;8724;51.272;6.554;2023-06-10T15:21:57;26.70;99.90
4701;DHT22;8724;51.272;6.554;2023-06-10T15:24:25;26.60;99.90
4701;DHT22;8724;51.272;6.554;2023-06-10T15:26:54;26.70;99.90
4701;DHT22;8724;51.272;6.554;2023-06-10T15:29:23;26.60;99.90
4701;DHT22;8724;51.272;6.554;2023-06-10T15:31:51;26.60;99.90
4701;DHT22;8724;51.272;6.554;2023-06-10T15:34:20;26.60;99.90
4701;DHT22;8724;51.272;6.554;2023-06-10T15:36:50;26.70;99.90
4701;DHT22;8724;51.272;6.554;2023-06-10T15:39:18;26.70;99.90
4701;DHT22;8724;51.272;6.554;2023-06-10T15:41:47;26.70;99.90
4701;DHT22;8724;51.272;6.554;2023-06-10T15:44:15;26.70;99.90
4701;DHT22;8724;51.272;6.554;2023-06-10T15:46:44;26.70;99.90
4701;DHT22;8724;51.272;6.554;2023-06-10T15:49:13;26.70;99.90
4701;DHT22;8724;51.272;6.554;2023-06-10T15:51:41;26.80;99.90
4701;DHT22;8724;51.272;6.554;2023-06-10T15:54:18;26.80;99.90
4701;DHT22;8724;51.272;6.554;2023-06-10T15:56:47;26.80;99.90
4701;DHT22;8724;51.272;6.554;2023-06-10T15:59:16;26.80;99.90
4701;DHT22;8724;51.272;6.554;2023-06-10T16:01:44;26.90;99.90
4701;DHT22;8724;51.272;6.554;2023-06-10T16:04:13;26.90;99.90
4701;DHT22;8724;51.272;6.554;2023-06-10T16:06:41;27.00;99.90
4701;DHT22;8724;51.272;6.554;2023-06-10T16:09:10;27.10;99.90
4701;DHT22;8724;51.272;6.554;2023-06-10T16:11:39;27.20;99.90
4701;DHT22;8724;51.272;6.554;2023-06-10T16:14:08;27.20;99.90
4701;DHT22;8724;51.272;6.554;2023-06-10T16:16:36;27.30;99.90
4701;DHT22;8724;51.272;6.554;2023-06-10T16:19:05;27.40;99.90
4701;DHT22;8724;51.272;6.554;2023-06-10T16:21:33;27.50;99.90
4701;DHT22;8724;51.272;6.554;2023-06-10T16:24:04;27.50;99.90